Weather History for Charlevoix, MI

Change the Weather History Date:

Wednesday, February 20, 2013

  Actual Average Record
Temperature  
Mean Temperature 17 °F -  
Max Temperature 21 °F 33 °F 42 °F (2003)
Min Temperature 13 °F 22 °F 1 °F (2008)
Degree Days  
Heating Degree Days 48    
Moisture  
Dew Point 9 °F    
Average Humidity 73    
Maximum Humidity 86    
Minimum Humidity 65    
Precipitation  
Precipitation 0.00 in - - ()
Sea Level Pressure  
Sea Level Pressure 30.15 in    
Wind  
Wind Speed 19 mph (NNW)    
Max Wind Speed 25 mph    
Max Gust Speed 37 mph    
Visibility 6 miles    
Events Snow    
Averages and records for this station are not official NWS values.
T = Trace of Precipitation, MM = Missing Value Source: NWS Daily Summary

Daily Weather History Graph

Daily Weather History Graph

Search for Another Location

Airport:

Trip Planner

Search our weather history database for the weather conditions in past years. The results will help you decide how hot, cold, wet, or windy it might be!

Date:

Astronomy

Feb. 20, 2013 Rise Set
Actual Time 7:34 AM EST 6:16 PM EST
Civil Twilight 7:04 AM EST 6:46 PM EST
Nautical Twilight 6:29 AM EST 7:20 PM EST
Astronomical Twilight 5:55 AM EST 7:54 PM EST
Moon 1:28 PM EST (2/20) 4:02 AM EST (2/20)
Length of Visible Light 11h 42m
Length of Day
10h 41m
Waxing Gibbous, 76% of the Moon is Illuminated
Feb 20
Waxing Gibbous
Feb 25
Full
Mar 4
Last Quarter
Mar 11
New
Mar 19
First Quarter

Hourly Weather History & Observations

Time (EST) Temp. Windchill Dew Point Humidity Pressure Visibility Wind Dir Wind Speed Gust Speed Precip Events Conditions
12:36 AM 15.8 °F -0.2 °F 12.2 °F 86% 29.88 in 0.8 mi NNW 17.3 mph 31.1 mph N/A Snow Snow
2:10 AM 14.9 °F -3.1 °F 6.6 °F 70% 29.92 in 3.0 mi NNW 21.9 mph 35.7 mph N/A Snow Light Snow
2:34 AM 14.7 °F -3.8 °F 5.4 °F 66% 29.93 in 4.0 mi NW 23.0 mph 33.4 mph N/A   Haze
2:54 AM 14.5 °F -2.7 °F 4.8 °F 65% 29.94 in 7.0 mi NNW 19.6 mph 35.7 mph N/A   Overcast
3:14 AM 14.4 °F -3.4 °F 6.1 °F 70% 29.96 in 5.0 mi NNW 20.7 mph 31.1 mph N/A Snow Light Snow
3:35 AM 14.5 °F -2.3 °F 8.4 °F 77% 29.96 in 2.0 mi NNW 18.4 mph 26.5 mph N/A Snow Light Snow
3:54 AM 14.2 °F -3.2 °F 6.6 °F 72% 29.96 in 2.0 mi NNW 19.6 mph 32.2 mph N/A Snow Light Snow
4:15 AM 14.2 °F -4.9 °F 5.4 °F 68% 29.98 in 7.0 mi NW 24.2 mph 34.5 mph N/A   Overcast
4:34 AM 14.0 °F -4.3 °F 4.5 °F 66% 29.99 in 10.0 mi NNW 21.9 mph 31.1 mph N/A   Overcast
4:55 AM 14.2 °F -2.3 °F 5.7 °F 69% 30.00 in 10.0 mi NNW 17.3 mph 27.6 mph N/A   Overcast
5:14 AM 14.5 °F -3.6 °F 6.6 °F 71% 30.01 in 7.0 mi NW 21.9 mph 31.1 mph N/A   Overcast
5:35 AM 14.0 °F -3.9 °F 5.2 °F 68% 30.02 in 10.0 mi NNW 20.7 mph 33.4 mph N/A   Overcast
5:54 AM 13.8 °F -4.1 °F 4.8 °F 67% 30.03 in 5.0 mi NW 20.7 mph 33.4 mph N/A   Haze
6:13 AM 13.8 °F -4.1 °F 5.2 °F 69% 30.04 in 7.0 mi NNW 20.7 mph 32.2 mph N/A   Overcast
6:26 AM 13.8 °F -4.5 °F 5.5 °F 70% 30.05 in 5.0 mi NW 21.9 mph 29.9 mph N/A   Haze
6:54 AM 13.8 °F -4.1 °F 4.3 °F 66% 30.06 in 7.0 mi NW 20.7 mph 35.7 mph N/A   Overcast
7:14 AM 13.6 °F -3.5 °F 4.8 °F 68% 30.07 in 7.0 mi NNW 18.4 mph 29.9 mph N/A   Overcast
7:34 AM 13.8 °F -3.2 °F 5.7 °F 70% 30.08 in 4.0 mi NNW 18.4 mph 35.7 mph N/A   Haze
7:55 AM 13.6 °F -5.9 °F 4.8 °F 68% 30.09 in 5.0 mi NW 25.3 mph 35.7 mph N/A   Haze
8:14 AM 13.8 °F -4.9 °F 5.5 °F 70% 30.10 in 5.0 mi NW 23.0 mph 33.4 mph N/A   Haze
8:35 AM 13.6 °F -4.4 °F 5.5 °F 70% 30.11 in 3.0 mi NNW 20.7 mph 28.8 mph N/A   Haze
8:55 AM 13.5 °F -4.2 °F 5.4 °F 70% 30.12 in 4.0 mi NW 19.6 mph 31.1 mph N/A   Haze
9:14 AM 13.8 °F -2.7 °F 6.1 °F 71% 30.12 in 5.0 mi NNW 17.3 mph 26.5 mph N/A   Haze
9:35 AM 13.6 °F -3.5 °F 5.5 °F 70% 30.12 in 7.0 mi NW 18.4 mph 27.6 mph N/A   Overcast
9:54 AM 13.5 °F -4.6 °F 6.3 °F 73% 30.13 in 3.0 mi North 20.7 mph 27.6 mph N/A   Haze
10:15 AM 13.3 °F -2.9 °F 5.7 °F 72% 30.14 in 5.0 mi NNW 16.1 mph 25.3 mph N/A   Haze
10:35 AM 13.5 °F -3.7 °F 5.7 °F 71% 30.14 in 4.0 mi NW 18.4 mph 25.3 mph N/A   Haze
10:54 AM 13.5 °F -3.2 °F 6.3 °F 73% 30.15 in 7.0 mi NNW 17.3 mph 25.3 mph N/A   Overcast
11:15 AM 13.6 °F -1.9 °F 6.6 °F 74% 30.15 in 4.0 mi NNW 15.0 mph 21.9 mph N/A Snow Light Snow
11:35 AM 13.6 °F -3.0 °F 6.3 °F 72% 30.16 in 7.0 mi NNW 17.3 mph 24.2 mph N/A   Overcast
11:54 AM 13.6 °F -3.9 °F 6.6 °F 74% 30.16 in 5.0 mi North 19.6 mph 25.3 mph N/A   Haze
12:15 PM 13.8 °F -2.2 °F 6.4 °F 72% 30.17 in 7.0 mi NNW 16.1 mph 23.0 mph N/A   Overcast
12:34 PM 14.0 °F -0.8 °F 7.0 °F 74% 30.17 in 7.0 mi North 13.8 mph 18.4 mph N/A   Overcast
12:54 PM 14.2 °F 0.7 °F 7.7 °F 75% 30.17 in 5.0 mi NNW 11.5 mph - N/A Snow Light Snow
1:15 PM 14.4 °F -1.5 °F 7.9 °F 75% 30.17 in 3.0 mi NW 16.1 mph 26.5 mph N/A Snow Light Snow
1:34 PM 14.5 °F 0.5 °F 7.5 °F 74% 30.17 in 10.0 mi NW 12.7 mph - N/A   Overcast
1:55 PM 14.7 °F 0.7 °F 6.6 °F 70% 30.17 in 10.0 mi NNW 12.7 mph 20.7 mph N/A   Overcast
2:15 PM 14.9 °F -0.3 °F 7.0 °F 71% 30.17 in 10.0 mi NNW 15.0 mph 25.3 mph N/A   Overcast
2:34 PM 14.9 °F 2.3 °F 7.5 °F 73% 30.18 in 7.0 mi NW 10.4 mph 20.7 mph N/A   Overcast
2:55 PM 15.6 °F 1.2 °F 8.1 °F 72% 30.18 in 10.0 mi NNW 13.8 mph 19.6 mph N/A   Overcast
3:34 PM 15.8 °F 2.7 °F 9.3 °F 76% 30.19 in 10.0 mi North 11.5 mph 16.1 mph N/A   Overcast
3:55 PM 16.3 °F 3.4 °F 9.5 °F 74% 30.20 in 7.0 mi NNW 11.5 mph 17.3 mph N/A Snow Light Snow
4:15 PM 16.5 °F 2.4 °F 10.0 °F 76% 30.20 in 7.0 mi NNW 13.8 mph 21.9 mph N/A Snow Light Snow
4:34 PM 16.5 °F 0.3 °F 9.5 °F 74% 30.21 in 5.0 mi NNW 18.4 mph 24.2 mph N/A   Haze
4:55 PM 16.5 °F 2.4 °F 10.4 °F 77% 30.22 in 2.5 mi NNW 13.8 mph 25.3 mph N/A Snow Light Snow
5:14 PM 16.7 °F 1.5 °F 10.9 °F 78% 30.23 in 3.0 mi North 16.1 mph 23.0 mph N/A Snow Light Snow
5:35 PM 17.2 °F 4.5 °F 11.7 °F 79% 30.25 in 3.0 mi NNW 11.5 mph 19.6 mph N/A Snow Light Snow
5:55 PM 17.6 °F 2.2 °F 11.5 °F 77% 30.25 in 4.0 mi NNW 17.3 mph 25.3 mph N/A Snow Light Snow
6:14 PM 18.1 °F 2.9 °F 12.0 °F 77% 30.26 in 2.5 mi NW 17.3 mph 28.8 mph N/A Snow Light Snow
6:34 PM 18.5 °F 1.6 °F 11.8 °F 75% 30.27 in 3.0 mi NNW 21.9 mph 28.8 mph N/A Snow Light Snow
6:55 PM 19.2 °F 5.3 °F 12.6 °F 75% 30.27 in 5.0 mi NNW 15.0 mph 33.4 mph N/A Snow Light Snow
7:14 PM 19.4 °F 3.2 °F 13.1 °F 76% 30.27 in 5.0 mi NW 20.7 mph 29.9 mph N/A Snow Light Snow
7:34 PM 19.9 °F 3.2 °F 13.5 °F 76% 30.27 in 4.0 mi NNW 23.0 mph 35.7 mph N/A Snow Light Snow
7:54 PM 20.1 °F 3.4 °F 13.8 °F 77% 30.27 in 5.0 mi NNW 23.0 mph 29.9 mph N/A Snow Light Snow
8:14 PM 20.5 °F 4.6 °F 14.2 °F 77% 30.27 in 5.0 mi NNW 20.7 mph 28.8 mph N/A Snow Light Snow
8:35 PM 20.8 °F 3.7 °F 14.5 °F 77% 30.26 in 4.0 mi NNW 25.3 mph 36.8 mph N/A Snow Light Snow
8:54 PM 21.0 °F 5.0 °F 14.4 °F 75% 30.27 in 4.0 mi NNW 21.9 mph 35.7 mph N/A Snow Light Snow
9:15 PM 21.2 °F 6.0 °F 15.1 °F 77% 30.28 in 3.0 mi NNW 19.6 mph 31.1 mph N/A Snow Light Snow
9:34 PM 21.2 °F 7.3 °F 14.9 °F 77% 30.28 in 5.0 mi NNW 16.1 mph 28.8 mph N/A Snow Light Snow
9:54 PM 21.2 °F 5.2 °F 14.9 °F 77% 30.29 in 4.0 mi NNW 21.9 mph 29.9 mph N/A Snow Light Snow
10:14 PM 21.4 °F 5.8 °F 15.4 °F 78% 30.29 in 5.0 mi North 20.7 mph 27.6 mph N/A Snow Light Snow
10:35 PM 21.2 °F 6.8 °F 15.4 °F 78% 30.29 in 4.0 mi NNW 17.3 mph 29.9 mph N/A Snow Light Snow
10:54 PM 21.2 °F 5.2 °F 15.3 °F 78% 30.29 in 7.0 mi NNW 21.9 mph 28.8 mph N/A Snow Light Snow
11:15 PM 21.2 °F 6.8 °F 15.1 °F 77% 30.30 in 7.0 mi North 17.3 mph 24.2 mph N/A Snow Light Snow
11:34 PM 21.0 °F 6.2 °F 14.9 °F 77% 30.30 in 7.0 mi NNW 18.4 mph 29.9 mph N/A Snow Light Snow
11:55 PM 20.5 °F 5.0 °F 15.3 °F 80% 30.30 in 3.0 mi North 19.6 mph 26.5 mph N/A Snow Light Snow